createdAt,value
2018-11-13T00:02:03.689Z,90.91
2018-11-13T00:04:31.148Z,90.87
2018-11-13T00:06:58.654Z,90.91
2018-11-13T00:09:26.053Z,91.11
2018-11-13T00:11:53.551Z,90.99
2018-11-13T00:14:21.007Z,91.21
2018-11-13T00:16:48.478Z,91.48
2018-11-13T00:19:15.952Z,90.93
2018-11-13T00:21:43.452Z,91.01
2018-11-13T00:24:10.997Z,90.43
2018-11-13T00:26:38.614Z,90.65
2018-11-13T00:29:06.091Z,90.75
2018-11-13T00:31:33.522Z,90.59
2018-11-13T00:34:01.020Z,90.63
2018-11-13T00:36:28.634Z,91.04
2018-11-13T00:38:56.090Z,91.08
2018-11-13T00:41:23.616Z,91.24
2018-11-13T00:43:51.183Z,91.17
2018-11-13T00:46:18.626Z,91.33
2018-11-13T00:48:46.066Z,91.13
2018-11-13T00:51:13.658Z,91.19
2018-11-13T00:53:41.198Z,91.74
2018-11-13T00:56:08.887Z,91.50
2018-11-13T00:58:36.374Z,91.56
2018-11-13T01:01:03.864Z,91.38
2018-11-13T01:03:31.283Z,91.40
2018-11-13T01:05:58.856Z,91.55
2018-11-13T01:08:26.271Z,91.89
2018-11-13T01:10:53.755Z,91.64
2018-11-13T01:13:21.246Z,91.84
2018-11-13T01:15:48.701Z,91.77
2018-11-13T01:18:16.107Z,91.91
2018-11-13T01:20:43.628Z,91.99
2018-11-13T01:23:11.102Z,91.89
2018-11-13T01:25:38.646Z,91.78
2018-11-13T01:28:06.228Z,92.23
2018-11-13T01:30:33.678Z,91.98
2018-11-13T01:33:01.152Z,91.34
2018-11-13T01:35:28.610Z,91.08
2018-11-13T01:37:56.057Z,90.64
2018-11-13T01:40:23.612Z,90.76
2018-11-13T01:42:51.032Z,90.37
2018-11-13T01:45:19.197Z,90.57
2018-11-13T01:47:46.624Z,90.37
2018-11-13T01:50:14.600Z,90.33
2018-11-13T01:52:42.099Z,90.58
2018-11-13T01:55:12.089Z,90.71
2018-11-13T01:57:39.616Z,90.37
2018-11-13T02:00:13.693Z,89.57
2018-11-13T02:02:41.225Z,89.84
2018-11-13T02:05:08.718Z,90.00
2018-11-13T02:07:36.164Z,90.19
2018-11-13T02:10:04.023Z,90.00
2018-11-13T02:12:31.475Z,90.07
2018-11-13T02:14:58.894Z,90.59
2018-11-13T02:17:26.347Z,90.68
2018-11-13T02:19:53.903Z,90.79
2018-11-13T02:22:21.473Z,90.96
2018-11-13T02:24:48.894Z,90.94
2018-11-13T02:27:16.308Z,90.64
2018-11-13T02:29:43.717Z,90.59
2018-11-13T02:32:11.213Z,90.69
2018-11-13T02:34:38.659Z,90.74
2018-11-13T02:37:06.232Z,90.41
2018-11-13T02:39:33.751Z,90.29
2018-11-13T02:42:01.198Z,90.66
2018-11-13T02:44:28.597Z,90.14
2018-11-13T02:46:56.078Z,90.27
2018-11-13T02:49:23.635Z,90.44
2018-11-13T02:51:51.818Z,90.28
2018-11-13T02:54:19.320Z,90.63
2018-11-13T02:56:46.769Z,90.85
2018-11-13T02:59:14.241Z,90.89
2018-11-13T03:01:41.856Z,90.92
2018-11-13T03:04:09.337Z,90.95
2018-11-13T03:06:36.771Z,90.43
2018-11-13T03:09:06.784Z,90.30
2018-11-13T03:11:34.398Z,90.51
2018-11-13T03:14:01.981Z,90.54
2018-11-13T03:16:29.474Z,90.16
2018-11-13T03:18:56.913Z,89.88
2018-11-13T03:21:24.362Z,89.47
2018-11-13T03:23:51.786Z,89.46
2018-11-13T03:26:19.348Z,89.45
2018-11-13T03:28:46.958Z,89.07
2018-11-13T03:31:14.503Z,88.77
2018-11-13T03:33:41.862Z,87.80
2018-11-13T03:36:09.363Z,88.10
2018-11-13T03:38:36.829Z,88.25
2018-11-13T03:41:04.329Z,88.48
2018-11-13T03:43:31.770Z,88.23
2018-11-13T03:45:59.296Z,88.33
2018-11-13T03:48:26.746Z,88.38
2018-11-13T03:50:54.170Z,87.87
2018-11-13T03:53:21.656Z,87.63
2018-11-13T03:55:49.136Z,87.52
2018-11-13T03:58:16.746Z,87.69
2018-11-13T04:00:44.419Z,87.53
2018-11-13T04:03:11.884Z,88.12
2018-11-13T04:05:39.297Z,88.67
2018-11-13T04:08:06.986Z,88.97
2018-11-13T04:10:34.448Z,88.78
2018-11-13T04:13:02.058Z,88.72
2018-11-13T04:15:29.697Z,88.81
2018-11-13T04:17:57.080Z,89.17
2018-11-13T04:20:24.519Z,89.06
2018-11-13T04:22:52.046Z,89.15
2018-11-13T04:25:19.562Z,89.20
2018-11-13T04:27:46.966Z,89.35
2018-11-13T04:30:15.955Z,89.18
2018-11-13T04:32:43.557Z,89.29
2018-11-13T04:35:12.241Z,89.55
2018-11-13T04:37:39.752Z,89.58
2018-11-13T04:40:11.246Z,89.37
2018-11-13T04:42:39.254Z,89.49
2018-11-13T04:45:08.790Z,88.95
2018-11-13T04:47:36.262Z,89.00
2018-11-13T04:50:04.502Z,89.38
2018-11-13T04:52:32.084Z,89.04
2018-11-13T04:54:59.514Z,89.49
2018-11-13T04:57:27.000Z,89.32
2018-11-13T04:59:54.590Z,89.05
2018-11-13T05:02:22.042Z,88.62
2018-11-13T05:04:49.544Z,89.00
2018-11-13T05:07:17.046Z,89.14
2018-11-13T05:09:44.538Z,88.87
2018-11-13T05:12:12.041Z,89.05
2018-11-13T05:14:39.514Z,89.20
2018-11-13T05:17:07.314Z,89.30
2018-11-13T05:19:34.776Z,88.64
2018-11-13T05:22:02.579Z,87.76
2018-11-13T05:24:29.979Z,87.93
2018-11-13T05:26:57.606Z,87.65
2018-11-13T05:29:25.009Z,88.19
2018-11-13T05:31:52.563Z,88.02
2018-11-13T05:34:19.988Z,88.14
2018-11-13T05:36:47.549Z,88.25
2018-11-13T05:39:15.046Z,88.57
2018-11-13T05:41:42.542Z,88.20
2018-11-13T05:44:09.993Z,87.92
2018-11-13T05:46:38.037Z,88.36
2018-11-13T05:49:05.687Z,88.27
2018-11-13T05:51:33.236Z,88.30
2018-11-13T05:54:00.751Z,88.79
2018-11-13T05:56:28.217Z,88.90
2018-11-13T05:58:55.726Z,89.37
2018-11-13T06:01:23.265Z,89.14
2018-11-13T06:03:50.893Z,89.59
2018-11-13T06:06:18.337Z,89.47
2018-11-13T06:08:45.755Z,88.86
2018-11-13T06:11:13.237Z,89.14
2018-11-13T06:13:40.693Z,89.06
2018-11-13T06:16:08.147Z,89.10
2018-11-13T06:18:35.601Z,89.18
2018-11-13T06:21:03.161Z,89.36
2018-11-13T06:23:30.681Z,88.99
2018-11-13T06:25:58.200Z,88.25
2018-11-13T06:28:25.639Z,88.26
2018-11-13T06:30:53.177Z,88.62
2018-11-13T06:33:20.649Z,88.84
2018-11-13T06:35:48.075Z,88.76
2018-11-13T06:38:15.524Z,88.74
2018-11-13T06:40:43.034Z,88.76
2018-11-13T06:43:10.445Z,88.81
2018-11-13T06:45:37.930Z,88.99
2018-11-13T06:48:05.714Z,89.14
2018-11-13T06:50:33.281Z,89.40
2018-11-13T06:53:00.829Z,89.62
2018-11-13T06:55:30.213Z,89.46
2018-11-13T06:57:57.884Z,89.46
2018-11-13T07:00:25.575Z,88.99
2018-11-13T07:02:53.057Z,89.36
2018-11-13T07:05:20.528Z,89.20
2018-11-13T07:07:48.258Z,88.92
2018-11-13T07:10:18.108Z,89.35
2018-11-13T07:12:46.831Z,89.25
2018-11-13T07:15:24.767Z,89.40
2018-11-13T07:17:53.809Z,89.30
2018-11-13T07:20:22.307Z,89.39
2018-11-13T07:22:49.770Z,89.42
2018-11-13T07:25:17.484Z,89.08
2018-11-13T07:27:45.171Z,89.50
2018-11-13T07:30:16.678Z,88.97
2018-11-13T07:32:44.284Z,89.37
2018-11-13T07:35:13.314Z,88.87
2018-11-13T07:37:43.520Z,88.28
2018-11-13T07:40:11.001Z,88.32
2018-11-13T07:42:38.482Z,87.77
2018-11-13T07:45:08.513Z,87.35
2018-11-13T07:47:36.181Z,87.12
2018-11-13T07:50:04.825Z,86.86
2018-11-13T07:52:32.268Z,86.53
2018-11-13T07:54:59.745Z,86.54
2018-11-13T07:57:27.631Z,86.73
2018-11-13T07:59:55.049Z,86.62
2018-11-13T08:02:22.501Z,87.00
2018-11-13T08:04:50.103Z,87.21
2018-11-13T08:07:17.617Z,87.21
2018-11-13T08:09:45.027Z,87.69
2018-11-13T08:12:12.919Z,87.36
2018-11-13T08:14:40.319Z,87.58
2018-11-13T08:17:07.845Z,87.21
2018-11-13T08:19:35.366Z,87.16
2018-11-13T08:22:02.983Z,86.59
2018-11-13T08:24:30.429Z,86.68
2018-11-13T08:26:58.062Z,86.36
2018-11-13T08:29:25.561Z,86.76
2018-11-13T08:31:52.994Z,86.40
2018-11-13T08:34:20.433Z,86.04
2018-11-13T08:36:47.873Z,85.87
2018-11-13T08:39:15.371Z,85.66
2018-11-13T08:41:42.933Z,85.38
2018-11-13T08:44:10.618Z,85.31
2018-11-13T08:46:38.364Z,85.76
2018-11-13T08:49:08.697Z,85.31
2018-11-13T08:51:36.255Z,85.17
2018-11-13T08:54:04.112Z,85.17
2018-11-13T08:56:31.602Z,85.05
2018-11-13T08:58:59.128Z,85.20
2018-11-13T09:01:26.686Z,85.40
2018-11-13T09:03:54.156Z,85.55
2018-11-13T09:06:21.822Z,85.33
2018-11-13T09:08:49.493Z,85.41
2018-11-13T09:11:17.024Z,85.33
2018-11-13T09:13:44.581Z,85.39
2018-11-13T09:16:12.122Z,86.13
2018-11-13T09:18:39.626Z,85.70
2018-11-13T09:21:07.098Z,85.14
2018-11-13T09:23:34.580Z,84.39
2018-11-13T09:26:02.303Z,83.60
2018-11-13T09:28:29.746Z,81.71
2018-11-13T09:30:57.520Z,80.63
2018-11-13T09:33:24.817Z,80.28
2018-11-13T09:35:52.397Z,79.44
2018-11-13T09:38:19.846Z,79.83
2018-11-13T09:40:47.279Z,79.64
2018-11-13T09:43:14.740Z,79.50
2018-11-13T09:45:42.250Z,79.21
2018-11-13T09:48:09.686Z,78.21
2018-11-13T09:50:37.175Z,77.85
2018-11-13T09:53:04.971Z,77.70
2018-11-13T09:55:32.508Z,75.42
2018-11-13T09:57:59.884Z,75.09
2018-11-13T10:00:27.437Z,75.19
2018-11-13T10:02:57.938Z,74.97
2018-11-13T10:05:24.931Z,72.95
2018-11-13T10:07:53.101Z,71.99
2018-11-13T10:10:20.788Z,71.84
2018-11-13T10:12:48.328Z,71.57
2018-11-13T10:15:25.046Z,72.24
2018-11-13T10:17:52.548Z,73.05
2018-11-13T10:20:19.997Z,73.98
2018-11-13T10:22:48.988Z,72.37
2018-11-13T10:25:16.482Z,72.45
2018-11-13T10:27:44.156Z,72.84
2018-11-13T10:30:13.465Z,73.62
2018-11-13T10:32:41.791Z,73.11
2018-11-13T10:35:10.528Z,73.10
2018-11-13T10:37:39.051Z,72.45
2018-11-13T10:40:08.563Z,72.17
2018-11-13T10:42:35.944Z,71.19
2018-11-13T10:45:04.516Z,70.16
2018-11-13T10:47:32.142Z,69.98
2018-11-13T10:49:59.628Z,69.91
2018-11-13T10:52:27.208Z,69.80
2018-11-13T10:54:54.634Z,69.62
2018-11-13T10:57:22.101Z,68.41
2018-11-13T10:59:49.535Z,68.09
2018-11-13T11:02:22.768Z,67.95
2018-11-13T11:04:50.510Z,67.21
2018-11-13T11:07:18.158Z,67.84
2018-11-13T11:09:45.990Z,67.45
2018-11-13T11:12:13.813Z,68.33
2018-11-13T11:14:41.555Z,69.30
2018-11-13T11:17:09.645Z,70.64
2018-11-13T11:19:37.289Z,70.98
2018-11-13T11:22:05.058Z,70.52
2018-11-13T11:24:32.457Z,69.25
2018-11-13T11:26:59.882Z,69.41
2018-11-13T11:29:27.355Z,68.54
2018-11-13T11:31:54.868Z,68.46
2018-11-13T11:34:22.320Z,69.62
2018-11-13T11:36:49.884Z,70.92
2018-11-13T11:39:17.435Z,72.07
2018-11-13T11:41:45.013Z,72.84
2018-11-13T11:44:12.465Z,71.88
2018-11-13T11:46:40.034Z,71.87
2018-11-13T11:49:07.479Z,72.32
2018-11-13T11:51:35.544Z,72.67
2018-11-13T11:54:04.206Z,72.38
2018-11-13T11:56:31.539Z,71.12
2018-11-13T11:58:59.009Z,68.08
2018-11-13T12:01:26.558Z,66.27
2018-11-13T12:03:54.097Z,66.70
2018-11-13T12:06:21.567Z,66.85
2018-11-13T12:08:49.082Z,67.32
2018-11-13T12:11:16.601Z,66.94
2018-11-13T12:13:44.275Z,66.78
2018-11-13T12:16:11.753Z,67.50
2018-11-13T12:18:39.498Z,67.63
2018-11-13T12:21:07.044Z,65.86
2018-11-13T12:23:34.552Z,66.25
2018-11-13T12:26:02.066Z,66.24
2018-11-13T12:28:29.717Z,66.30
2018-11-13T12:30:57.297Z,66.38
2018-11-13T12:33:24.761Z,66.55
2018-11-13T12:35:52.222Z,66.94
2018-11-13T12:38:19.897Z,67.74
2018-11-13T12:40:47.432Z,67.79
2018-11-13T12:43:14.925Z,66.61
2018-11-13T12:45:42.603Z,66.32
2018-11-13T12:48:10.055Z,66.63
2018-11-13T12:50:43.141Z,66.20
2018-11-13T12:53:10.661Z,66.24
2018-11-13T12:55:38.277Z,66.82
2018-11-13T12:58:05.784Z,66.31
2018-11-13T13:00:33.357Z,66.21
2018-11-13T13:03:00.754Z,66.09
2018-11-13T13:05:28.235Z,65.51
2018-11-13T13:07:55.683Z,64.03
2018-11-13T13:10:23.294Z,64.56
2018-11-13T13:12:50.856Z,65.15
2018-11-13T13:15:19.000Z,65.04
2018-11-13T13:17:46.690Z,65.66
2018-11-13T13:20:17.346Z,64.50
2018-11-13T13:22:46.675Z,64.61
2018-11-13T13:25:15.285Z,64.53
2018-11-13T13:27:42.846Z,64.23
2018-11-13T13:30:14.042Z,64.08
2018-11-13T13:32:41.595Z,64.48
2018-11-13T13:35:44.756Z,62.31
2018-11-13T13:38:12.252Z,62.43
2018-11-13T13:40:40.597Z,63.16
2018-11-13T13:43:09.133Z,62.17
2018-11-13T13:45:37.191Z,62.64
2018-11-13T13:48:04.733Z,62.92
2018-11-13T13:50:32.239Z,61.56
2018-11-13T13:52:59.822Z,63.07
2018-11-13T13:55:27.393Z,63.70
2018-11-13T13:57:54.911Z,61.93
2018-11-13T14:00:22.660Z,62.01
2018-11-13T14:02:49.829Z,62.56
2018-11-13T14:05:17.879Z,63.04
2018-11-13T14:07:45.323Z,62.64
2018-11-13T14:10:12.825Z,61.93
2018-11-13T14:12:40.353Z,60.59
2018-11-13T14:15:09.822Z,61.92
2018-11-13T14:17:37.284Z,61.64
2018-11-13T14:20:07.849Z,61.46
2018-11-13T14:22:35.318Z,62.05
2018-11-13T14:25:02.929Z,61.65
2018-11-13T14:27:30.474Z,62.42
2018-11-13T14:29:57.948Z,61.65
2018-11-13T14:32:25.520Z,62.01
2018-11-13T14:34:53.122Z,61.55
2018-11-13T14:37:20.622Z,62.80
2018-11-13T14:39:48.390Z,62.73
2018-11-13T14:42:15.965Z,62.35
2018-11-13T14:44:43.499Z,61.54
2018-11-13T14:47:11.044Z,62.49
2018-11-13T14:49:39.602Z,62.86
2018-11-13T14:52:07.078Z,63.34
2018-11-13T14:54:34.512Z,64.22
2018-11-13T14:57:02.028Z,64.02
2018-11-13T14:59:29.603Z,65.04
2018-11-13T15:01:57.049Z,65.19
2018-11-13T15:04:24.638Z,65.50
2018-11-13T15:06:52.238Z,66.29
2018-11-13T15:09:19.748Z,65.70
2018-11-13T15:11:47.296Z,66.24
2018-11-13T15:14:14.740Z,66.60
2018-11-13T15:16:42.202Z,65.35
2018-11-13T15:19:09.650Z,65.14
2018-11-13T15:21:37.343Z,66.03
2018-11-13T15:24:05.068Z,66.65
2018-11-13T15:26:32.638Z,66.70
2018-11-13T15:29:00.052Z,66.81
2018-11-13T15:31:27.651Z,67.61
2018-11-13T15:33:55.164Z,67.44
2018-11-13T15:36:22.590Z,67.47
2018-11-13T15:38:50.101Z,68.45
2018-11-13T15:41:17.594Z,68.99
2018-11-13T15:43:44.995Z,69.30
2018-11-13T15:46:12.714Z,69.86
2018-11-13T15:48:40.273Z,70.43
2018-11-13T15:51:09.158Z,70.37
2018-11-13T15:53:36.733Z,71.49
2018-11-13T15:56:05.875Z,71.43
2018-11-13T15:58:33.682Z,72.27
2018-11-13T16:01:01.116Z,72.02
2018-11-13T16:03:34.673Z,71.61
2018-11-13T16:06:02.110Z,71.69
2018-11-13T16:08:29.691Z,70.93
2018-11-13T16:10:57.209Z,71.29
2018-11-13T16:13:24.664Z,71.72
2018-11-13T16:15:52.222Z,72.52
2018-11-13T16:18:23.317Z,73.09
2018-11-13T16:20:50.824Z,73.50
2018-11-13T16:23:18.266Z,73.92
2018-11-13T16:25:45.894Z,74.35
2018-11-13T16:28:13.449Z,74.62
2018-11-13T16:30:41.356Z,75.18
2018-11-13T16:33:08.888Z,76.01
2018-11-13T16:35:36.438Z,76.07
2018-11-13T16:38:05.465Z,76.60
2018-11-13T16:40:33.604Z,76.39
2018-11-13T16:43:01.252Z,76.82
2018-11-13T16:45:29.807Z,77.10
2018-11-13T16:47:58.145Z,75.71
2018-11-13T16:50:27.907Z,75.86
2018-11-13T16:52:55.679Z,76.83
2018-11-13T16:55:28.901Z,77.09
2018-11-13T16:57:57.329Z,77.31
2018-11-13T17:00:24.940Z,78.07
2018-11-13T17:02:52.475Z,78.22
2018-11-13T17:05:20.964Z,78.59
2018-11-13T17:07:48.739Z,78.60
2018-11-13T17:10:19.077Z,78.76
2018-11-13T17:12:47.106Z,78.89
2018-11-13T17:15:17.314Z,79.07
2018-11-13T17:17:45.508Z,79.06
2018-11-13T17:20:13.537Z,79.10
2018-11-13T17:22:41.649Z,79.24
2018-11-13T17:25:10.596Z,79.23
2018-11-13T17:27:39.331Z,79.78
2018-11-13T17:30:14.433Z,79.84
2018-11-13T17:32:42.754Z,80.11
2018-11-13T17:35:11.724Z,80.16
2018-11-13T17:37:39.436Z,80.71
2018-11-13T17:40:13.289Z,80.97
2018-11-13T17:42:41.451Z,81.18
2018-11-13T17:45:15.570Z,81.23
2018-11-13T17:47:43.370Z,81.71
2018-11-13T17:50:17.155Z,81.59
2018-11-13T17:52:45.585Z,81.67
2018-11-13T17:55:13.941Z,81.50
2018-11-13T17:57:42.697Z,81.73
2018-11-13T18:00:14.952Z,81.42
2018-11-13T18:02:43.508Z,81.25
2018-11-13T18:05:11.126Z,80.55
2018-11-13T18:07:38.649Z,80.52
2018-11-13T18:10:07.061Z,80.93
2018-11-13T18:12:37.933Z,81.19
2018-11-13T18:15:07.844Z,81.24
2018-11-13T18:17:35.323Z,81.59
2018-11-13T18:20:03.254Z,82.22
2018-11-13T18:22:30.794Z,82.74
2018-11-13T18:24:58.239Z,82.78
2018-11-13T18:27:25.817Z,83.37
2018-11-13T18:29:53.441Z,83.37
2018-11-13T18:32:20.974Z,82.98
2018-11-13T18:34:48.444Z,83.09
2018-11-13T18:37:16.028Z,83.36
2018-11-13T18:39:43.930Z,83.15
2018-11-13T18:42:11.501Z,82.59
2018-11-13T18:44:39.024Z,81.85
2018-11-13T18:47:06.662Z,80.96
2018-11-13T18:49:34.217Z,81.21
2018-11-13T18:52:01.670Z,81.85
2018-11-13T18:54:29.180Z,81.94
2018-11-13T18:56:56.720Z,82.38
2018-11-13T18:59:24.209Z,82.75
2018-11-13T19:01:52.523Z,83.17
2018-11-13T19:04:20.134Z,83.90
2018-11-13T19:06:47.596Z,83.77
2018-11-13T19:09:15.036Z,83.92
2018-11-13T19:11:42.643Z,83.98
2018-11-13T19:14:10.030Z,84.23
2018-11-13T19:16:37.568Z,84.82
2018-11-13T19:19:05.061Z,85.07
2018-11-13T19:21:32.723Z,84.79
2018-11-13T19:24:00.367Z,84.52
2018-11-13T19:26:27.748Z,84.60
2018-11-13T19:28:55.294Z,84.58
2018-11-13T19:31:22.786Z,84.39
2018-11-13T19:33:50.330Z,84.51
2018-11-13T19:36:17.959Z,84.53
2018-11-13T19:38:45.622Z,85.16
2018-11-13T19:41:13.614Z,85.34
2018-11-13T19:43:41.196Z,85.67
2018-11-13T19:46:08.676Z,85.85
2018-11-13T19:48:36.150Z,86.13
2018-11-13T19:51:03.766Z,86.52
2018-11-13T19:53:31.337Z,86.53
2018-11-13T19:55:59.294Z,86.99
2018-11-13T19:58:26.912Z,86.97
2018-11-13T20:00:54.430Z,87.18
2018-11-13T20:03:21.854Z,87.51
2018-11-13T20:05:49.423Z,87.47
2018-11-13T20:08:16.896Z,88.16
2018-11-13T20:10:44.502Z,87.91
2018-11-13T20:13:11.976Z,88.09
2018-11-13T20:15:39.982Z,88.19
2018-11-13T20:18:07.498Z,88.67
2018-11-13T20:20:35.195Z,88.72
2018-11-13T20:23:04.190Z,88.92
2018-11-13T20:25:32.902Z,89.01
2018-11-13T20:28:00.642Z,88.75
2018-11-13T20:30:29.833Z,88.72
2018-11-13T20:32:57.419Z,88.86
2018-11-13T20:35:25.001Z,88.88
2018-11-13T20:37:53.131Z,88.92
2018-11-13T20:40:24.913Z,89.01
2018-11-13T20:42:53.886Z,88.95
2018-11-13T20:45:21.432Z,89.11
2018-11-13T20:47:48.867Z,89.34
2018-11-13T20:50:17.582Z,89.52
2018-11-13T20:52:45.571Z,89.58
2018-11-13T20:55:13.262Z,89.77
2018-11-13T20:57:40.899Z,89.68
2018-11-13T21:00:13.371Z,89.71
2018-11-13T21:02:40.867Z,89.76
2018-11-13T21:05:08.484Z,89.84
2018-11-13T21:07:36.473Z,90.01
2018-11-13T21:10:05.811Z,90.06
2018-11-13T21:12:33.533Z,90.26
2018-11-13T21:15:00.987Z,90.05
2018-11-13T21:17:28.607Z,90.28
2018-11-13T21:19:55.987Z,90.27
2018-11-13T21:22:23.575Z,90.29
2018-11-13T21:24:51.044Z,90.41
2018-11-13T21:27:18.890Z,90.33
2018-11-13T21:29:46.052Z,90.38
2018-11-13T21:32:13.438Z,90.30
2018-11-13T21:34:41.069Z,90.41
2018-11-13T21:37:09.181Z,90.66
2018-11-13T21:39:36.507Z,90.75
2018-11-13T21:42:04.536Z,90.63
2018-11-13T21:44:32.010Z,90.51
2018-11-13T21:46:59.658Z,90.39
2018-11-13T21:49:27.069Z,90.33
2018-11-13T21:51:54.717Z,90.41
2018-11-13T21:54:22.154Z,90.43
2018-11-13T21:56:49.616Z,90.46
2018-11-13T21:59:17.165Z,90.61
2018-11-13T22:01:44.706Z,90.75
2018-11-13T22:04:12.265Z,90.65
2018-11-13T22:06:39.868Z,90.66
2018-11-13T22:09:09.382Z,90.94
2018-11-13T22:11:36.968Z,90.94
2018-11-13T22:14:04.974Z,91.25
2018-11-13T22:16:32.665Z,91.27
2018-11-13T22:19:00.110Z,91.36
2018-11-13T22:21:27.818Z,91.35
2018-11-13T22:23:55.250Z,91.23
2018-11-13T22:26:22.734Z,91.43
2018-11-13T22:28:50.475Z,91.47
2018-11-13T22:31:17.750Z,91.44
2018-11-13T22:33:45.222Z,91.65
2018-11-13T22:36:12.687Z,91.67
2018-11-13T22:38:40.092Z,91.91
2018-11-13T22:41:07.578Z,91.86
2018-11-13T22:43:35.135Z,91.96
2018-11-13T22:46:03.610Z,92.14
2018-11-13T22:48:30.984Z,91.97
2018-11-13T22:50:58.844Z,91.94
2018-11-13T22:53:25.862Z,91.64
2018-11-13T22:55:53.292Z,91.92
2018-11-13T22:58:20.853Z,92.17
2018-11-13T23:00:48.758Z,92.09
2018-11-13T23:03:18.110Z,91.99
2018-11-13T23:05:46.665Z,92.04
2018-11-13T23:08:16.525Z,92.45
2018-11-13T23:10:43.991Z,92.34
2018-11-13T23:13:11.461Z,92.61
2018-11-13T23:15:39.173Z,92.07
2018-11-13T23:18:07.025Z,91.82
2018-11-13T23:20:34.545Z,91.60
2018-11-13T23:23:02.009Z,91.59
2018-11-13T23:25:29.605Z,91.83
2018-11-13T23:27:57.129Z,91.87
2018-11-13T23:30:25.937Z,91.78
2018-11-13T23:32:54.156Z,92.00
2018-11-13T23:35:21.741Z,92.02
2018-11-13T23:37:50.291Z,92.09
2018-11-13T23:40:19.394Z,92.11
2018-11-13T23:42:47.401Z,92.11
2018-11-13T23:45:15.934Z,91.95
2018-11-13T23:47:43.896Z,92.15
2018-11-13T23:50:11.707Z,91.77
2018-11-13T23:52:39.642Z,91.89
2018-11-13T23:55:08.529Z,92.00
2018-11-13T23:57:35.966Z,92.01
